sensor_id;sensor_type;location;lat;lon;timestamp;temperature;humidity
13976;DHT22;7062;49.792;9.946;2023-04-06T00:00:57;4.00;99.90
13976;DHT22;7062;49.792;9.946;2023-04-06T00:03:23;4.00;99.90
13976;DHT22;7062;49.792;9.946;2023-04-06T00:05:49;4.10;99.90
13976;DHT22;7062;49.792;9.946;2023-04-06T00:08:15;4.00;99.90
13976;DHT22;7062;49.792;9.946;2023-04-06T00:10:41;3.90;99.90
13976;DHT22;7062;49.792;9.946;2023-04-06T00:13:07;3.90;99.90
13976;DHT22;7062;49.792;9.946;2023-04-06T00:15:33;3.70;99.90
13976;DHT22;7062;49.792;9.946;2023-04-06T00:17:58;3.70;99.90
13976;DHT22;7062;49.792;9.946;2023-04-06T00:20:24;3.70;99.90
13976;DHT22;7062;49.792;9.946;2023-04-06T00:22:50;3.70;99.90
13976;DHT22;7062;49.792;9.946;2023-04-06T00:25:16;3.70;99.90
13976;DHT22;7062;49.792;9.946;2023-04-06T00:27:42;3.80;99.90
13976;DHT22;7062;49.792;9.946;2023-04-06T00:30:08;3.80;99.90
13976;DHT22;7062;49.792;9.946;2023-04-06T00:32:36;3.70;99.90
13976;DHT22;7062;49.792;9.946;2023-04-06T00:35:03;3.80;99.90
13976;DHT22;7062;49.792;9.946;2023-04-06T00:37:29;3.80;99.90
13976;DHT22;7062;49.792;9.946;2023-04-06T00:39:54;3.70;99.90
13976;DHT22;7062;49.792;9.946;2023-04-06T00:42:21;3.70;99.90
13976;DHT22;7062;49.792;9.946;2023-04-06T00:44:52;3.70;99.90
13976;DHT22;7062;49.792;9.946;2023-04-06T00:47:18;3.60;99.90
13976;DHT22;7062;49.792;9.946;2023-04-06T00:49:44;3.70;99.90
13976;DHT22;7062;49.792;9.946;2023-04-06T00:52:10;3.70;99.90
13976;DHT22;7062;49.792;9.946;2023-04-06T00:54:35;3.80;99.90
13976;DHT22;7062;49.792;9.946;2023-04-06T00:57:01;3.70;99.90
13976;DHT22;7062;49.792;9.946;2023-04-06T00:59:28;3.60;99.90
13976;DHT22;7062;49.792;9.946;2023-04-06T01:01:54;4.90;99.90
13976;DHT22;7062;49.792;9.946;2023-04-06T01:04:20;3.50;99.90
13976;DHT22;7062;49.792;9.946;2023-04-06T01:06:48;3.50;99.90
13976;DHT22;7062;49.792;9.946;2023-04-06T01:09:14;3.40;99.90
13976;DHT22;7062;49.792;9.946;2023-04-06T01:11:40;3.30;99.90
13976;DHT22;7062;49.792;9.946;2023-04-06T01:14:05;3.30;99.90
13976;DHT22;7062;49.792;9.946;2023-04-06T01:16:31;3.30;99.90
13976;DHT22;7062;49.792;9.946;2023-04-06T01:18:57;3.20;99.90
13976;DHT22;7062;49.792;9.946;2023-04-06T01:21:23;3.30;99.90
13976;DHT22;7062;49.792;9.946;2023-04-06T01:23:49;3.40;99.90
13976;DHT22;7062;49.792;9.946;2023-04-06T01:26:14;3.40;99.90
13976;DHT22;7062;49.792;9.946;2023-04-06T01:28:40;3.30;99.90
13976;DHT22;7062;49.792;9.946;2023-04-06T01:31:07;3.30;99.90
13976;DHT22;7062;49.792;9.946;2023-04-06T01:33:33;3.40;99.90
13976;DHT22;7062;49.792;9.946;2023-04-06T01:35:59;3.40;99.90
13976;DHT22;7062;49.792;9.946;2023-04-06T01:38:25;3.30;99.90
13976;DHT22;7062;49.792;9.946;2023-04-06T01:40:52;3.30;99.90
13976;DHT22;7062;49.792;9.946;2023-04-06T01:43:18;3.30;99.90
13976;DHT22;7062;49.792;9.946;2023-04-06T01:45:43;3.30;99.90
13976;DHT22;7062;49.792;9.946;2023-04-06T01:48:09;3.30;99.90
13976;DHT22;7062;49.792;9.946;2023-04-06T01:50:35;3.30;99.90
13976;DHT22;7062;49.792;9.946;2023-04-06T01:53:01;3.20;99.90
13976;DHT22;7062;49.792;9.946;2023-04-06T01:55:27;3.10;99.90
13976;DHT22;7062;49.792;9.946;2023-04-06T01:57:52;3.10;99.90
13976;DHT22;7062;49.792;9.946;2023-04-06T02:00:18;3.20;99.90
13976;DHT22;7062;49.792;9.946;2023-04-06T02:02:44;3.20;99.90
13976;DHT22;7062;49.792;9.946;2023-04-06T02:05:10;3.00;99.90
13976;DHT22;7062;49.792;9.946;2023-04-06T02:07:35;3.00;99.90
13976;DHT22;7062;49.792;9.946;2023-04-06T02:10:01;3.00;99.90
13976;DHT22;7062;49.792;9.946;2023-04-06T02:12:27;3.00;99.90
13976;DHT22;7062;49.792;9.946;2023-04-06T02:14:53;3.00;99.90
13976;DHT22;7062;49.792;9.946;2023-04-06T02:17:18;3.00;99.90
13976;DHT22;7062;49.792;9.946;2023-04-06T02:19:44;3.00;99.90
13976;DHT22;7062;49.792;9.946;2023-04-06T02:22:10;3.00;99.90
13976;DHT22;7062;49.792;9.946;2023-04-06T02:24:36;3.00;99.90
13976;DHT22;7062;49.792;9.946;2023-04-06T02:27:01;2.90;99.90
13976;DHT22;7062;49.792;9.946;2023-04-06T02:29:27;2.80;99.90
13976;DHT22;7062;49.792;9.946;2023-04-06T02:31:53;2.90;99.90
13976;DHT22;7062;49.792;9.946;2023-04-06T02:34:18;2.80;99.90
13976;DHT22;7062;49.792;9.946;2023-04-06T02:36:45;2.90;99.90
13976;DHT22;7062;49.792;9.946;2023-04-06T02:39:11;2.60;99.90
13976;DHT22;7062;49.792;9.946;2023-04-06T02:41:37;2.60;99.90
13976;DHT22;7062;49.792;9.946;2023-04-06T02:44:03;2.50;99.90
13976;DHT22;7062;49.792;9.946;2023-04-06T02:46:28;2.60;99.90
13976;DHT22;7062;49.792;9.946;2023-04-06T02:48:54;2.60;99.90
13976;DHT22;7062;49.792;9.946;2023-04-06T02:51:20;2.50;99.90
13976;DHT22;7062;49.792;9.946;2023-04-06T02:53:46;2.50;99.90
13976;DHT22;7062;49.792;9.946;2023-04-06T02:56:11;2.50;99.90
13976;DHT22;7062;49.792;9.946;2023-04-06T02:58:37;2.40;99.90
13976;DHT22;7062;49.792;9.946;2023-04-06T03:01:03;2.40;99.90
13976;DHT22;7062;49.792;9.946;2023-04-06T03:03:29;2.40;99.90
13976;DHT22;7062;49.792;9.946;2023-04-06T03:05:55;2.40;99.90
13976;DHT22;7062;49.792;9.946;2023-04-06T03:08:24;2.40;99.90
13976;DHT22;7062;49.792;9.946;2023-04-06T03:10:50;2.60;99.90
13976;DHT22;7062;49.792;9.946;2023-04-06T03:13:16;2.60;99.90
13976;DHT22;7062;49.792;9.946;2023-04-06T03:15:41;2.50;99.90
13976;DHT22;7062;49.792;9.946;2023-04-06T03:18:07;2.50;99.90
13976;DHT22;7062;49.792;9.946;2023-04-06T03:20:32;2.30;99.90
13976;DHT22;7062;49.792;9.946;2023-04-06T03:22:58;2.30;99.90
13976;DHT22;7062;49.792;9.946;2023-04-06T03:25:24;2.30;99.90
13976;DHT22;7062;49.792;9.946;2023-04-06T03:27:50;2.40;99.90
13976;DHT22;7062;49.792;9.946;2023-04-06T03:30:15;2.40;99.90
13976;DHT22;7062;49.792;9.946;2023-04-06T03:32:43;2.40;99.90
13976;DHT22;7062;49.792;9.946;2023-04-06T03:35:09;2.30;99.90
13976;DHT22;7062;49.792;9.946;2023-04-06T03:37:35;2.50;99.90
13976;DHT22;7062;49.792;9.946;2023-04-06T03:40:01;2.20;99.90
13976;DHT22;7062;49.792;9.946;2023-04-06T03:42:26;2.10;99.90
13976;DHT22;7062;49.792;9.946;2023-04-06T03:44:52;2.00;99.90
13976;DHT22;7062;49.792;9.946;2023-04-06T03:47:18;1.80;99.90
13976;DHT22;7062;49.792;9.946;2023-04-06T03:49:43;1.70;99.90
13976;DHT22;7062;49.792;9.946;2023-04-06T03:52:09;1.60;99.90
13976;DHT22;7062;49.792;9.946;2023-04-06T03:54:35;1.60;99.90
13976;DHT22;7062;49.792;9.946;2023-04-06T03:57:00;1.60;99.90
13976;DHT22;7062;49.792;9.946;2023-04-06T03:59:26;1.50;99.90
13976;DHT22;7062;49.792;9.946;2023-04-06T04:01:52;1.50;99.90
13976;DHT22;7062;49.792;9.946;2023-04-06T04:04:17;1.70;99.90
13976;DHT22;7062;49.792;9.946;2023-04-06T04:06:43;1.70;99.90
13976;DHT22;7062;49.792;9.946;2023-04-06T04:09:08;1.80;99.90
13976;DHT22;7062;49.792;9.946;2023-04-06T04:11:34;1.80;99.90
13976;DHT22;7062;49.792;9.946;2023-04-06T04:14:00;1.90;99.90
13976;DHT22;7062;49.792;9.946;2023-04-06T04:16:26;1.90;99.90
13976;DHT22;7062;49.792;9.946;2023-04-06T04:18:51;1.90;99.90
13976;DHT22;7062;49.792;9.946;2023-04-06T04:21:17;1.90;99.90
13976;DHT22;7062;49.792;9.946;2023-04-06T04:23:43;1.90;99.90
13976;DHT22;7062;49.792;9.946;2023-04-06T04:26:08;2.00;99.90
13976;DHT22;7062;49.792;9.946;2023-04-06T04:28:34;1.90;99.90
13976;DHT22;7062;49.792;9.946;2023-04-06T04:31:00;1.90;99.90
13976;DHT22;7062;49.792;9.946;2023-04-06T04:33:25;1.80;99.90
13976;DHT22;7062;49.792;9.946;2023-04-06T04:35:51;1.90;99.90
13976;DHT22;7062;49.792;9.946;2023-04-06T04:38:17;1.90;99.90
13976;DHT22;7062;49.792;9.946;2023-04-06T04:40:42;1.80;99.90
13976;DHT22;7062;49.792;9.946;2023-04-06T04:43:08;1.80;99.90
13976;DHT22;7062;49.792;9.946;2023-04-06T04:45:33;1.70;99.90
13976;DHT22;7062;49.792;9.946;2023-04-06T04:47:59;1.40;99.90
13976;DHT22;7062;49.792;9.946;2023-04-06T04:50:25;1.30;99.90
13976;DHT22;7062;49.792;9.946;2023-04-06T04:52:50;1.20;99.90
13976;DHT22;7062;49.792;9.946;2023-04-06T04:55:16;1.20;99.90
13976;DHT22;7062;49.792;9.946;2023-04-06T04:57:43;1.30;99.90
13976;DHT22;7062;49.792;9.946;2023-04-06T05:00:09;1.40;99.90
13976;DHT22;7062;49.792;9.946;2023-04-06T05:02:34;1.50;99.90
13976;DHT22;7062;49.792;9.946;2023-04-06T05:05:00;1.50;99.90
13976;DHT22;7062;49.792;9.946;2023-04-06T05:07:26;1.50;99.90
13976;DHT22;7062;49.792;9.946;2023-04-06T05:09:52;1.60;99.90
13976;DHT22;7062;49.792;9.946;2023-04-06T05:12:18;1.60;99.90
13976;DHT22;7062;49.792;9.946;2023-04-06T05:14:44;1.70;99.90
13976;DHT22;7062;49.792;9.946;2023-04-06T05:17:10;1.60;99.90
13976;DHT22;7062;49.792;9.946;2023-04-06T05:19:36;1.20;99.90
13976;DHT22;7062;49.792;9.946;2023-04-06T05:22:01;1.80;99.90
13976;DHT22;7062;49.792;9.946;2023-04-06T05:24:27;1.80;99.90
13976;DHT22;7062;49.792;9.946;2023-04-06T05:26:53;1.90;99.90
13976;DHT22;7062;49.792;9.946;2023-04-06T05:29:18;1.80;99.90
13976;DHT22;7062;49.792;9.946;2023-04-06T05:31:45;1.80;99.90
13976;DHT22;7062;49.792;9.946;2023-04-06T05:34:11;1.70;99.90
13976;DHT22;7062;49.792;9.946;2023-04-06T05:36:38;1.80;99.90
13976;DHT22;7062;49.792;9.946;2023-04-06T05:39:03;1.80;99.90
13976;DHT22;7062;49.792;9.946;2023-04-06T05:41:29;1.80;99.90
13976;DHT22;7062;49.792;9.946;2023-04-06T05:43:55;1.80;99.90
13976;DHT22;7062;49.792;9.946;2023-04-06T05:46:21;2.00;99.90
13976;DHT22;7062;49.792;9.946;2023-04-06T05:48:46;2.00;99.90
13976;DHT22;7062;49.792;9.946;2023-04-06T05:51:12;2.20;99.90
13976;DHT22;7062;49.792;9.946;2023-04-06T05:53:38;2.20;99.90
13976;DHT22;7062;49.792;9.946;2023-04-06T05:56:04;2.30;99.90
13976;DHT22;7062;49.792;9.946;2023-04-06T05:58:30;2.30;99.90
13976;DHT22;7062;49.792;9.946;2023-04-06T06:00:59;2.30;99.90
13976;DHT22;7062;49.792;9.946;2023-04-06T06:03:25;2.50;99.90
13976;DHT22;7062;49.792;9.946;2023-04-06T06:05:51;2.70;99.90
13976;DHT22;7062;49.792;9.946;2023-04-06T06:08:16;2.70;99.90
13976;DHT22;7062;49.792;9.946;2023-04-06T06:10:42;2.70;99.90
13976;DHT22;7062;49.792;9.946;2023-04-06T06:13:08;2.80;99.90
13976;DHT22;7062;49.792;9.946;2023-04-06T06:15:34;2.80;99.90
13976;DHT22;7062;49.792;9.946;2023-04-06T06:18:00;2.70;99.90
13976;DHT22;7062;49.792;9.946;2023-04-06T06:20:26;2.60;99.90
13976;DHT22;7062;49.792;9.946;2023-04-06T06:22:52;2.70;99.90
13976;DHT22;7062;49.792;9.946;2023-04-06T06:25:18;2.70;99.90
13976;DHT22;7062;49.792;9.946;2023-04-06T06:27:43;2.70;99.90
13976;DHT22;7062;49.792;9.946;2023-04-06T06:30:10;2.90;99.90
13976;DHT22;7062;49.792;9.946;2023-04-06T06:32:35;3.10;99.90
13976;DHT22;7062;49.792;9.946;2023-04-06T06:35:01;3.30;99.90
13976;DHT22;7062;49.792;9.946;2023-04-06T06:37:28;3.30;99.90
13976;DHT22;7062;49.792;9.946;2023-04-06T06:39:53;3.50;99.90
13976;DHT22;7062;49.792;9.946;2023-04-06T06:42:19;3.50;99.90
13976;DHT22;7062;49.792;9.946;2023-04-06T06:44:45;3.60;99.90
13976;DHT22;7062;49.792;9.946;2023-04-06T06:47:10;3.60;99.90
13976;DHT22;7062;49.792;9.946;2023-04-06T06:49:36;3.80;99.90
13976;DHT22;7062;49.792;9.946;2023-04-06T06:52:02;3.90;99.90
13976;DHT22;7062;49.792;9.946;2023-04-06T06:54:27;4.00;99.90
13976;DHT22;7062;49.792;9.946;2023-04-06T06:56:53;4.00;99.90
13976;DHT22;7062;49.792;9.946;2023-04-06T06:59:19;4.00;99.90
13976;DHT22;7062;49.792;9.946;2023-04-06T07:01:46;4.10;99.90
13976;DHT22;7062;49.792;9.946;2023-04-06T07:04:12;4.30;99.90
13976;DHT22;7062;49.792;9.946;2023-04-06T07:06:37;4.30;99.90
13976;DHT22;7062;49.792;9.946;2023-04-06T07:09:03;4.50;99.90
13976;DHT22;7062;49.792;9.946;2023-04-06T07:11:29;4.60;99.90
13976;DHT22;7062;49.792;9.946;2023-04-06T07:13:55;4.40;99.90
13976;DHT22;7062;49.792;9.946;2023-04-06T07:16:21;4.60;99.90
13976;DHT22;7062;49.792;9.946;2023-04-06T07:18:47;4.80;99.90
13976;DHT22;7062;49.792;9.946;2023-04-06T07:21:13;4.90;99.90
13976;DHT22;7062;49.792;9.946;2023-04-06T07:23:38;5.00;99.90
13976;DHT22;7062;49.792;9.946;2023-04-06T07:26:04;4.90;99.90
13976;DHT22;7062;49.792;9.946;2023-04-06T07:28:30;4.90;99.90
13976;DHT22;7062;49.792;9.946;2023-04-06T07:30:56;5.00;99.90
13976;DHT22;7062;49.792;9.946;2023-04-06T07:33:21;5.00;99.90
13976;DHT22;7062;49.792;9.946;2023-04-06T07:35:47;5.10;99.90
13976;DHT22;7062;49.792;9.946;2023-04-06T07:38:13;5.10;99.90
13976;DHT22;7062;49.792;9.946;2023-04-06T07:40:39;5.30;99.90
13976;DHT22;7062;49.792;9.946;2023-04-06T07:43:04;5.30;99.90
13976;DHT22;7062;49.792;9.946;2023-04-06T07:45:30;5.30;99.90
13976;DHT22;7062;49.792;9.946;2023-04-06T07:47:56;5.50;99.90
13976;DHT22;7062;49.792;9.946;2023-04-06T07:50:22;5.50;99.90
13976;DHT22;7062;49.792;9.946;2023-04-06T07:52:48;5.70;99.90
13976;DHT22;7062;49.792;9.946;2023-04-06T07:55:13;5.80;99.90
13976;DHT22;7062;49.792;9.946;2023-04-06T07:57:39;5.90;99.90
13976;DHT22;7062;49.792;9.946;2023-04-06T08:00:05;6.20;99.90
13976;DHT22;7062;49.792;9.946;2023-04-06T08:02:31;6.50;99.90
13976;DHT22;7062;49.792;9.946;2023-04-06T08:04:57;6.70;99.90
13976;DHT22;7062;49.792;9.946;2023-04-06T08:07:23;6.80;99.90
13976;DHT22;7062;49.792;9.946;2023-04-06T08:09:48;6.50;99.90
13976;DHT22;7062;49.792;9.946;2023-04-06T08:12:14;6.60;99.90
13976;DHT22;7062;49.792;9.946;2023-04-06T08:14:40;6.70;99.90
13976;DHT22;7062;49.792;9.946;2023-04-06T08:17:05;6.70;99.90
13976;DHT22;7062;49.792;9.946;2023-04-06T08:19:31;6.80;99.90
13976;DHT22;7062;49.792;9.946;2023-04-06T08:21:57;7.00;99.90
13976;DHT22;7062;49.792;9.946;2023-04-06T08:24:22;7.20;99.90
13976;DHT22;7062;49.792;9.946;2023-04-06T08:26:48;7.40;99.60
13976;DHT22;7062;49.792;9.946;2023-04-06T08:29:14;7.50;99.30
13976;DHT22;7062;49.792;9.946;2023-04-06T08:31:39;7.70;98.70
13976;DHT22;7062;49.792;9.946;2023-04-06T08:34:05;7.70;98.60
13976;DHT22;7062;49.792;9.946;2023-04-06T08:36:32;7.80;98.60
13976;DHT22;7062;49.792;9.946;2023-04-06T08:38:59;8.10;98.50
13976;DHT22;7062;49.792;9.946;2023-04-06T08:41:25;8.40;97.90
13976;DHT22;7062;49.792;9.946;2023-04-06T08:43:59;8.40;97.90
13976;DHT22;7062;49.792;9.946;2023-04-06T08:46:25;8.30;97.80
13976;DHT22;7062;49.792;9.946;2023-04-06T08:48:59;8.20;97.90
13976;DHT22;7062;49.792;9.946;2023-04-06T08:51:25;8.40;97.80
13976;DHT22;7062;49.792;9.946;2023-04-06T08:53:56;8.60;97.60
13976;DHT22;7062;49.792;9.946;2023-04-06T08:56:23;8.50;97.20
13976;DHT22;7062;49.792;9.946;2023-04-06T08:58:50;8.60;97.50
13976;DHT22;7062;49.792;9.946;2023-04-06T09:01:18;8.90;97.50
13976;DHT22;7062;49.792;9.946;2023-04-06T09:03:46;9.20;97.20
13976;DHT22;7062;49.792;9.946;2023-04-06T09:06:13;9.90;97.40
13976;DHT22;7062;49.792;9.946;2023-04-06T09:08:40;9.60;96.90
13976;DHT22;7062;49.792;9.946;2023-04-06T09:11:07;9.80;96.40
13976;DHT22;7062;49.792;9.946;2023-04-06T09:13:47;10.30;96.40
13976;DHT22;7062;49.792;9.946;2023-04-06T09:16:13;11.00;94.90
13976;DHT22;7062;49.792;9.946;2023-04-06T09:18:39;12.00;93.80
13976;DHT22;7062;49.792;9.946;2023-04-06T09:21:06;13.60;93.00
13976;DHT22;7062;49.792;9.946;2023-04-06T09:23:32;15.30;89.50
13976;DHT22;7062;49.792;9.946;2023-04-06T09:26:09;16.00;85.90
13976;DHT22;7062;49.792;9.946;2023-04-06T09:31:12;18.30;77.10
13976;DHT22;7062;49.792;9.946;2023-04-06T09:33:40;19.20;71.80
13976;DHT22;7062;49.792;9.946;2023-04-06T09:36:07;20.40;69.50
13976;DHT22;7062;49.792;9.946;2023-04-06T09:38:38;21.00;68.70
13976;DHT22;7062;49.792;9.946;2023-04-06T09:41:04;21.70;63.70
13976;DHT22;7062;49.792;9.946;2023-04-06T09:43:30;21.30;63.20
13976;DHT22;7062;49.792;9.946;2023-04-06T09:45:56;21.90;62.20
13976;DHT22;7062;49.792;9.946;2023-04-06T09:48:24;23.10;59.00
13976;DHT22;7062;49.792;9.946;2023-04-06T09:50:54;23.60;58.10
13976;DHT22;7062;49.792;9.946;2023-04-06T09:53:25;23.80;56.70
13976;DHT22;7062;49.792;9.946;2023-04-06T09:55:55;23.80;55.40
13976;DHT22;7062;49.792;9.946;2023-04-06T09:58:23;24.20;54.60
13976;DHT22;7062;49.792;9.946;2023-04-06T10:01:03;22.30;55.30
13976;DHT22;7062;49.792;9.946;2023-04-06T10:06:11;23.10;52.00
13976;DHT22;7062;49.792;9.946;2023-04-06T10:08:38;21.90;52.50
13976;DHT22;7062;49.792;9.946;2023-04-06T10:11:07;21.60;54.10
13976;DHT22;7062;49.792;9.946;2023-04-06T10:13:34;22.10;53.40
13976;DHT22;7062;49.792;9.946;2023-04-06T10:16:00;23.70;50.60
13976;DHT22;7062;49.792;9.946;2023-04-06T10:18:27;24.30;49.10
13976;DHT22;7062;49.792;9.946;2023-04-06T10:24:00;26.20;45.80
13976;DHT22;7062;49.792;9.946;2023-04-06T10:26:27;25.40;45.50
13976;DHT22;7062;49.792;9.946;2023-04-06T10:28:53;26.00;46.10
13976;DHT22;7062;49.792;9.946;2023-04-06T10:31:26;26.70;45.30
13976;DHT22;7062;49.792;9.946;2023-04-06T10:34:00;26.60;44.50
13976;DHT22;7062;49.792;9.946;2023-04-06T10:36:28;28.00;44.20
13976;DHT22;7062;49.792;9.946;2023-04-06T10:39:04;28.50;43.00
13976;DHT22;7062;49.792;9.946;2023-04-06T10:41:50;27.90;42.70
13976;DHT22;7062;49.792;9.946;2023-04-06T10:44:23;28.20;42.30
13976;DHT22;7062;49.792;9.946;2023-04-06T10:46:57;28.90;41.50
13976;DHT22;7062;49.792;9.946;2023-04-06T10:49:25;29.60;41.70
13976;DHT22;7062;49.792;9.946;2023-04-06T10:51:55;28.20;41.60
13976;DHT22;7062;49.792;9.946;2023-04-06T10:54:24;27.60;41.20
13976;DHT22;7062;49.792;9.946;2023-04-06T10:56:50;27.30;42.00
13976;DHT22;7062;49.792;9.946;2023-04-06T10:59:19;28.80;40.80
13976;DHT22;7062;49.792;9.946;2023-04-06T11:01:46;28.80;40.30
13976;DHT22;7062;49.792;9.946;2023-04-06T11:04:16;29.30;41.40
13976;DHT22;7062;49.792;9.946;2023-04-06T11:06:49;29.90;39.60
13976;DHT22;7062;49.792;9.946;2023-04-06T11:09:33;30.40;38.80
13976;DHT22;7062;49.792;9.946;2023-04-06T11:12:01;29.80;38.20
13976;DHT22;7062;49.792;9.946;2023-04-06T11:14:27;29.20;38.40
13976;DHT22;7062;49.792;9.946;2023-04-06T11:16:53;29.50;38.10
13976;DHT22;7062;49.792;9.946;2023-04-06T11:19:18;28.50;39.20
13976;DHT22;7062;49.792;9.946;2023-04-06T11:21:46;28.90;38.60
13976;DHT22;7062;49.792;9.946;2023-04-06T11:24:17;29.60;38.50
13976;DHT22;7062;49.792;9.946;2023-04-06T11:26:45;30.20;38.30
13976;DHT22;7062;49.792;9.946;2023-04-06T11:29:15;31.30;37.40
13976;DHT22;7062;49.792;9.946;2023-04-06T11:31:51;31.20;37.50
13976;DHT22;7062;49.792;9.946;2023-04-06T11:34:22;31.20;37.10
13976;DHT22;7062;49.792;9.946;2023-04-06T11:36:54;30.50;37.00
13976;DHT22;7062;49.792;9.946;2023-04-06T11:39:22;27.70;38.70
13976;DHT22;7062;49.792;9.946;2023-04-06T11:41:52;26.50;40.00
13976;DHT22;7062;49.792;9.946;2023-04-06T11:47:05;21.80;45.30
13976;DHT22;7062;49.792;9.946;2023-04-06T11:49:33;20.40;47.70
13976;DHT22;7062;49.792;9.946;2023-04-06T11:52:00;19.40;48.90
13976;DHT22;7062;49.792;9.946;2023-04-06T11:54:33;18.90;49.90
13976;DHT22;7062;49.792;9.946;2023-04-06T11:56:59;21.00;49.20
13976;DHT22;7062;49.792;9.946;2023-04-06T11:59:26;24.90;45.50
13976;DHT22;7062;49.792;9.946;2023-04-06T12:01:52;26.10;42.80
13976;DHT22;7062;49.792;9.946;2023-04-06T12:04:19;26.60;41.60
13976;DHT22;7062;49.792;9.946;2023-04-06T12:06:44;27.30;39.90
13976;DHT22;7062;49.792;9.946;2023-04-06T12:09:10;26.00;41.00
13976;DHT22;7062;49.792;9.946;2023-04-06T12:11:36;23.10;42.90
13976;DHT22;7062;49.792;9.946;2023-04-06T12:14:01;21.30;45.40
13976;DHT22;7062;49.792;9.946;2023-04-06T12:16:33;19.40;47.40
13976;DHT22;7062;49.792;9.946;2023-04-06T12:18:59;18.20;49.30
13976;DHT22;7062;49.792;9.946;2023-04-06T12:21:27;17.20;51.20
13976;DHT22;7062;49.792;9.946;2023-04-06T12:23:52;17.00;52.20
13976;DHT22;7062;49.792;9.946;2023-04-06T12:26:18;17.60;51.00
13976;DHT22;7062;49.792;9.946;2023-04-06T12:28:44;18.70;50.30
13976;DHT22;7062;49.792;9.946;2023-04-06T12:31:20;19.60;48.60
13976;DHT22;7062;49.792;9.946;2023-04-06T12:33:50;20.30;48.10
13976;DHT22;7062;49.792;9.946;2023-04-06T12:36:18;21.30;46.30
13976;DHT22;7062;49.792;9.946;2023-04-06T12:38:45;23.20;45.40
13976;DHT22;7062;49.792;9.946;2023-04-06T12:41:11;26.00;41.90
13976;DHT22;7062;49.792;9.946;2023-04-06T12:43:37;25.60;41.80
13976;DHT22;7062;49.792;9.946;2023-04-06T12:46:03;25.00;41.80
13976;DHT22;7062;49.792;9.946;2023-04-06T12:48:29;25.70;41.50
13976;DHT22;7062;49.792;9.946;2023-04-06T12:51:00;26.40;40.60
13976;DHT22;7062;49.792;9.946;2023-04-06T12:53:26;28.40;39.50
13976;DHT22;7062;49.792;9.946;2023-04-06T12:55:54;29.90;37.70
13976;DHT22;7062;49.792;9.946;2023-04-06T12:58:21;29.80;37.20
13976;DHT22;7062;49.792;9.946;2023-04-06T13:00:48;30.00;36.60
13976;DHT22;7062;49.792;9.946;2023-04-06T13:03:14;30.30;36.40
13976;DHT22;7062;49.792;9.946;2023-04-06T13:05:47;31.40;36.90
13976;DHT22;7062;49.792;9.946;2023-04-06T13:08:14;32.00;36.80
13976;DHT22;7062;49.792;9.946;2023-04-06T13:10:58;32.00;35.00
13976;DHT22;7062;49.792;9.946;2023-04-06T13:13:25;31.70;35.80
13976;DHT22;7062;49.792;9.946;2023-04-06T13:15:52;30.70;35.90
13976;DHT22;7062;49.792;9.946;2023-04-06T13:18:17;29.50;36.60
13976;DHT22;7062;49.792;9.946;2023-04-06T13:20:43;28.30;37.00
13976;DHT22;7062;49.792;9.946;2023-04-06T13:23:09;26.20;39.00
13976;DHT22;7062;49.792;9.946;2023-04-06T13:25:35;24.70;40.00
13976;DHT22;7062;49.792;9.946;2023-04-06T13:28:00;23.00;41.60
13976;DHT22;7062;49.792;9.946;2023-04-06T13:30:26;22.40;42.90
13976;DHT22;7062;49.792;9.946;2023-04-06T13:32:52;21.70;43.80
13976;DHT22;7062;49.792;9.946;2023-04-06T13:35:17;21.90;43.50
13976;DHT22;7062;49.792;9.946;2023-04-06T13:37:43;23.20;42.60
13976;DHT22;7062;49.792;9.946;2023-04-06T13:40:10;25.20;40.40
13976;DHT22;7062;49.792;9.946;2023-04-06T13:42:36;25.10;39.80
13976;DHT22;7062;49.792;9.946;2023-04-06T13:45:04;24.50;40.60
13976;DHT22;7062;49.792;9.946;2023-04-06T13:47:30;22.60;41.70
13976;DHT22;7062;49.792;9.946;2023-04-06T13:49:55;20.90;43.90
13976;DHT22;7062;49.792;9.946;2023-04-06T13:52:21;20.30;45.00
13976;DHT22;7062;49.792;9.946;2023-04-06T13:54:47;19.80;45.80
13976;DHT22;7062;49.792;9.946;2023-04-06T13:57:13;19.30;46.50
13976;DHT22;7062;49.792;9.946;2023-04-06T13:59:39;19.30;46.60
13976;DHT22;7062;49.792;9.946;2023-04-06T14:02:06;19.40;47.10
13976;DHT22;7062;49.792;9.946;2023-04-06T14:04:33;20.20;46.80
13976;DHT22;7062;49.792;9.946;2023-04-06T14:06:59;22.30;44.70
13976;DHT22;7062;49.792;9.946;2023-04-06T14:09:25;24.30;41.50
13976;DHT22;7062;49.792;9.946;2023-04-06T14:11:52;26.60;39.60
13976;DHT22;7062;49.792;9.946;2023-04-06T14:14:17;27.20;38.50
13976;DHT22;7062;49.792;9.946;2023-04-06T14:16:43;27.80;38.30
13976;DHT22;7062;49.792;9.946;2023-04-06T14:19:13;29.00;37.50
13976;DHT22;7062;49.792;9.946;2023-04-06T14:21:39;28.50;37.00
13976;DHT22;7062;49.792;9.946;2023-04-06T14:24:08;28.10;37.70
13976;DHT22;7062;49.792;9.946;2023-04-06T14:26:38;28.20;37.70
13976;DHT22;7062;49.792;9.946;2023-04-06T14:29:04;26.30;38.70
13976;DHT22;7062;49.792;9.946;2023-04-06T14:31:30;23.70;40.30
13976;DHT22;7062;49.792;9.946;2023-04-06T14:33:56;21.90;43.30
13976;DHT22;7062;49.792;9.946;2023-04-06T14:36:22;21.10;44.20
13976;DHT22;7062;49.792;9.946;2023-04-06T14:38:48;20.50;45.50
13976;DHT22;7062;49.792;9.946;2023-04-06T14:41:22;21.00;45.20
13976;DHT22;7062;49.792;9.946;2023-04-06T14:43:48;22.30;43.10
13976;DHT22;7062;49.792;9.946;2023-04-06T14:46:14;23.60;42.10
13976;DHT22;7062;49.792;9.946;2023-04-06T14:48:41;24.80;41.20
13976;DHT22;7062;49.792;9.946;2023-04-06T14:51:06;25.80;39.20
13976;DHT22;7062;49.792;9.946;2023-04-06T14:53:33;26.10;39.00
13976;DHT22;7062;49.792;9.946;2023-04-06T14:55:58;26.30;38.50
13976;DHT22;7062;49.792;9.946;2023-04-06T14:58:25;25.40;40.10
13976;DHT22;7062;49.792;9.946;2023-04-06T15:00:59;24.30;40.30
13976;DHT22;7062;49.792;9.946;2023-04-06T15:03:25;24.70;40.00
13976;DHT22;7062;49.792;9.946;2023-04-06T15:05:52;24.80;39.40
13976;DHT22;7062;49.792;9.946;2023-04-06T15:08:18;24.70;40.30
13976;DHT22;7062;49.792;9.946;2023-04-06T15:10:46;23.70;40.70
13976;DHT22;7062;49.792;9.946;2023-04-06T15:13:12;22.40;42.00
13976;DHT22;7062;49.792;9.946;2023-04-06T15:15:38;21.40;43.20
13976;DHT22;7062;49.792;9.946;2023-04-06T15:18:04;20.60;44.10
13976;DHT22;7062;49.792;9.946;2023-04-06T15:20:30;20.60;44.70
13976;DHT22;7062;49.792;9.946;2023-04-06T15:22:56;20.80;44.30
13976;DHT22;7062;49.792;9.946;2023-04-06T15:25:22;20.90;43.80
13976;DHT22;7062;49.792;9.946;2023-04-06T15:27:47;21.00;44.00
13976;DHT22;7062;49.792;9.946;2023-04-06T15:30:13;20.80;43.80
13976;DHT22;7062;49.792;9.946;2023-04-06T15:32:39;19.90;44.90
13976;DHT22;7062;49.792;9.946;2023-04-06T15:35:09;19.10;46.10
13976;DHT22;7062;49.792;9.946;2023-04-06T15:37:36;18.80;47.20
13976;DHT22;7062;49.792;9.946;2023-04-06T15:40:02;19.50;46.20
13976;DHT22;7062;49.792;9.946;2023-04-06T15:42:28;19.80;45.30
13976;DHT22;7062;49.792;9.946;2023-04-06T15:44:54;20.10;44.90
13976;DHT22;7062;49.792;9.946;2023-04-06T15:47:19;20.20;44.90
13976;DHT22;7062;49.792;9.946;2023-04-06T15:49:45;20.50;44.60
13976;DHT22;7062;49.792;9.946;2023-04-06T15:52:11;20.60;44.60
13976;DHT22;7062;49.792;9.946;2023-04-06T15:54:36;20.90;44.40
13976;DHT22;7062;49.792;9.946;2023-04-06T15:57:06;20.80;44.10
13976;DHT22;7062;49.792;9.946;2023-04-06T15:59:32;20.50;44.60
13976;DHT22;7062;49.792;9.946;2023-04-06T16:01:57;20.70;44.70